sensor_id;sensor_type;location;lat;lon;timestamp;pressure;altitude;pressure_sealevel;temperature;humidity
73240;BME280;61452;40.054;4.110;2024-02-16T00:03:24;101730.13;;;15.87;100.00
73240;BME280;61452;40.054;4.110;2024-02-16T00:08:26;101718.03;;;15.83;100.00
73240;BME280;61452;40.054;4.110;2024-02-16T00:13:28;101716.91;;;15.87;100.00
73240;BME280;61452;40.054;4.110;2024-02-16T00:18:30;101721.34;;;15.86;100.00
73240;BME280;61452;40.054;4.110;2024-02-16T00:23:32;101721.25;;;15.88;100.00
73240;BME280;61452;40.054;4.110;2024-02-16T00:28:35;101725.69;;;15.87;100.00
73240;BME280;61452;40.054;4.110;2024-02-16T00:33:37;101737.31;;;15.85;100.00
73240;BME280;61452;40.054;4.110;2024-02-16T00:38:39;101718.81;;;15.85;100.00
73240;BME280;61452;40.054;4.110;2024-02-16T00:43:41;101694.28;;;15.81;100.00
73240;BME280;61452;40.054;4.110;2024-02-16T00:48:46;101708.09;;;15.86;100.00
73240;BME280;61452;40.054;4.110;2024-02-16T00:53:49;101712.38;;;15.89;100.00
73240;BME280;61452;40.054;4.110;2024-02-16T00:58:51;101716.03;;;15.86;100.00
73240;BME280;61452;40.054;4.110;2024-02-16T01:03:53;101706.44;;;15.85;100.00
73240;BME280;61452;40.054;4.110;2024-02-16T01:08:55;101718.81;;;15.85;100.00
73240;BME280;61452;40.054;4.110;2024-02-16T01:13:58;101709.06;;;15.85;100.00
73240;BME280;61452;40.054;4.110;2024-02-16T01:19:00;101713.41;;;15.86;100.00
73240;BME280;61452;40.054;4.110;2024-02-16T01:24:02;101709.94;;;15.86;100.00
73240;BME280;61452;40.054;4.110;2024-02-16T01:29:05;101714.44;;;15.84;100.00
73240;BME280;61452;40.054;4.110;2024-02-16T01:34:07;101707.28;;;15.86;100.00
73240;BME280;61452;40.054;4.110;2024-02-16T01:39:09;101701.13;;;15.85;100.00
73240;BME280;61452;40.054;4.110;2024-02-16T01:44:11;101712.56;;;15.86;100.00
73240;BME280;61452;40.054;4.110;2024-02-16T01:49:14;101701.03;;;15.87;100.00
73240;BME280;61452;40.054;4.110;2024-02-16T01:54:16;101690.56;;;15.85;100.00
73240;BME280;61452;40.054;4.110;2024-02-16T01:59:20;101687.06;;;15.85;100.00
73240;BME280;61452;40.054;4.110;2024-02-16T02:04:22;101678.34;;;15.83;100.00
73240;BME280;61452;40.054;4.110;2024-02-16T02:09:25;101666.03;;;15.82;100.00
73240;BME280;61452;40.054;4.110;2024-02-16T02:14:27;101664.09;;;15.85;100.00
73240;BME280;61452;40.054;4.110;2024-02-16T02:19:29;101659.66;;;15.86;100.00
73240;BME280;61452;40.054;4.110;2024-02-16T02:24:31;101660.69;;;15.83;100.00
73240;BME280;61452;40.054;4.110;2024-02-16T02:29:33;101656.25;;;15.84;100.00
73240;BME280;61452;40.054;4.110;2024-02-16T02:34:35;101656.31;;;15.82;100.00
73240;BME280;61452;40.054;4.110;2024-02-16T02:39:41;101654.53;;;15.83;100.00
73240;BME280;61452;40.054;4.110;2024-02-16T02:44:43;101649.16;;;15.84;100.00
73240;BME280;61452;40.054;4.110;2024-02-16T02:49:51;101634.16;;;15.85;100.00
73240;BME280;61452;40.054;4.110;2024-02-16T02:54:53;101631.56;;;15.83;100.00
73240;BME280;61452;40.054;4.110;2024-02-16T03:00:03;101628.06;;;15.83;100.00
73240;BME280;61452;40.054;4.110;2024-02-16T03:05:07;101638.56;;;15.84;100.00
73240;BME280;61452;40.054;4.110;2024-02-16T03:10:10;101643.00;;;15.84;100.00
73240;BME280;61452;40.054;4.110;2024-02-16T03:15:13;101650.09;;;15.83;100.00
73240;BME280;61452;40.054;4.110;2024-02-16T03:20:15;101641.97;;;15.86;100.00
73240;BME280;61452;40.054;4.110;2024-02-16T03:25:18;101634.31;;;15.82;100.00
73240;BME280;61452;40.054;4.110;2024-02-16T03:30:21;101638.72;;;15.81;100.00
73240;BME280;61452;40.054;4.110;2024-02-16T03:35:23;101630.81;;;15.81;100.00
73240;BME280;61452;40.054;4.110;2024-02-16T03:40:26;101631.50;;;15.85;100.00
73240;BME280;61452;40.054;4.110;2024-02-16T03:45:28;101639.50;;;15.83;100.00
73240;BME280;61452;40.054;4.110;2024-02-16T03:50:30;101625.44;;;15.83;100.00
73240;BME280;61452;40.054;4.110;2024-02-16T03:55:33;101628.16;;;15.81;100.00
73240;BME280;61452;40.054;4.110;2024-02-16T04:00:38;101624.56;;;15.82;100.00
73240;BME280;61452;40.054;4.110;2024-02-16T04:05:40;101610.56;;;15.80;100.00
73240;BME280;61452;40.054;4.110;2024-02-16T04:10:42;101609.63;;;15.81;100.00
73240;BME280;61452;40.054;4.110;2024-02-16T04:15:46;101621.06;;;15.82;100.00
73240;BME280;61452;40.054;4.110;2024-02-16T04:20:51;101611.28;;;15.84;100.00
73240;BME280;61452;40.054;4.110;2024-02-16T04:25:53;101612.19;;;15.83;100.00
73240;BME280;61452;40.054;4.110;2024-02-16T04:30:55;101610.50;;;15.82;100.00
73240;BME280;61452;40.054;4.110;2024-02-16T04:35:58;101610.50;;;15.82;100.00
73240;BME280;61452;40.054;4.110;2024-02-16T04:41:00;101588.41;;;15.83;100.00
73240;BME280;61452;40.054;4.110;2024-02-16T04:46:02;101598.97;;;15.83;100.00
73240;BME280;61452;40.054;4.110;2024-02-16T04:51:04;101596.34;;;15.83;100.00
73240;BME280;61452;40.054;4.110;2024-02-16T04:56:06;101600.75;;;15.82;100.00
73240;BME280;61452;40.054;4.110;2024-02-16T05:01:08;101601.69;;;15.81;100.00
73240;BME280;61452;40.054;4.110;2024-02-16T05:06:10;101627.31;;;15.81;100.00
73240;BME280;61452;40.054;4.110;2024-02-16T05:11:13;101625.44;;;15.83;100.00
73240;BME280;61452;40.054;4.110;2024-02-16T05:16:15;101626.38;;;15.82;100.00
73240;BME280;61452;40.054;4.110;2024-02-16T05:21:18;101606.13;;;15.81;100.00
73240;BME280;61452;40.054;4.110;2024-02-16T05:26:21;101621.00;;;15.83;100.00
73240;BME280;61452;40.054;4.110;2024-02-16T05:31:23;101629.09;;;15.80;100.00
73240;BME280;61452;40.054;4.110;2024-02-16T05:36:25;101640.53;;;15.81;100.00
73240;BME280;61452;40.054;4.110;2024-02-16T05:41:29;101648.38;;;15.82;100.00
73240;BME280;61452;40.054;4.110;2024-02-16T05:46:31;101653.69;;;15.82;100.00
73240;BME280;61452;40.054;4.110;2024-02-16T05:51:37;101657.19;;;15.83;100.00
73240;BME280;61452;40.054;4.110;2024-02-16T05:56:42;101657.38;;;15.80;100.00
73240;BME280;61452;40.054;4.110;2024-02-16T06:01:46;101656.41;;;15.81;100.00
73240;BME280;61452;40.054;4.110;2024-02-16T06:06:49;101652.81;;;15.82;100.00
73240;BME280;61452;40.054;4.110;2024-02-16T06:11:51;101653.69;;;15.82;100.00
73240;BME280;61452;40.054;4.110;2024-02-16T06:16:53;101639.66;;;15.80;100.00
73240;BME280;61452;40.054;4.110;2024-02-16T06:21:55;101651.88;;;15.83;100.00
73240;BME280;61452;40.054;4.110;2024-02-16T06:26:57;101654.59;;;15.81;100.00
73240;BME280;61452;40.054;4.110;2024-02-16T06:32:00;101660.00;;;15.80;100.00
73240;BME280;61452;40.054;4.110;2024-02-16T06:37:04;101659.91;;;15.81;100.00
73240;BME280;61452;40.054;4.110;2024-02-16T06:42:06;101663.41;;;15.82;100.00
73240;BME280;61452;40.054;4.110;2024-02-16T06:47:08;101669.63;;;15.81;100.00
73240;BME280;61452;40.054;4.110;2024-02-16T06:52:10;101673.97;;;15.82;100.00
73240;BME280;61452;40.054;4.110;2024-02-16T06:57:12;101678.53;;;15.80;100.00
73240;BME280;61452;40.054;4.110;2024-02-16T07:02:15;101683.81;;;15.80;100.00
73240;BME280;61452;40.054;4.110;2024-02-16T07:07:18;101685.50;;;15.81;100.00
73240;BME280;61452;40.054;4.110;2024-02-16T07:12:21;101685.50;;;15.81;100.00
73240;BME280;61452;40.054;4.110;2024-02-16T07:17:23;101689.94;;;15.80;100.00
73240;BME280;61452;40.054;4.110;2024-02-16T07:22:25;101695.22;;;15.80;100.00
73240;BME280;61452;40.054;4.110;2024-02-16T07:27:27;101697.13;;;15.78;100.00
73240;BME280;61452;40.054;4.110;2024-02-16T07:32:30;101697.03;;;15.80;100.00
73240;BME280;61452;40.054;4.110;2024-02-16T07:37:32;101702.22;;;15.81;100.00
73240;BME280;61452;40.054;4.110;2024-02-16T07:42:40;101696.94;;;15.81;100.00
73240;BME280;61452;40.054;4.110;2024-02-16T07:47:45;101696.06;;;15.81;100.00
73240;BME280;61452;40.054;4.110;2024-02-16T07:52:48;101700.63;;;15.78;100.00
73240;BME280;61452;40.054;4.110;2024-02-16T07:57:51;101711.94;;;15.81;100.00
73240;BME280;61452;40.054;4.110;2024-02-16T08:02:54;101718.22;;;15.80;100.00
73240;BME280;61452;40.054;4.110;2024-02-16T08:07:56;101725.28;;;15.79;100.00
73240;BME280;61452;40.054;4.110;2024-02-16T08:12:58;101731.44;;;15.80;100.00
73240;BME280;61452;40.054;4.110;2024-02-16T08:18:00;101727.94;;;15.79;100.00
73240;BME280;61452;40.054;4.110;2024-02-16T08:23:03;101727.06;;;15.78;100.00
73240;BME280;61452;40.054;4.110;2024-02-16T08:28:05;101730.56;;;15.79;100.00
73240;BME280;61452;40.054;4.110;2024-02-16T08:33:07;101727.81;;;15.81;100.00
73240;BME280;61452;40.054;4.110;2024-02-16T08:38:10;101725.19;;;15.81;100.00
73240;BME280;61452;40.054;4.110;2024-02-16T08:43:13;101726.97;;;15.80;100.00
73240;BME280;61452;40.054;4.110;2024-02-16T08:48:15;101738.50;;;15.79;100.00
73240;BME280;61452;40.054;4.110;2024-02-16T08:53:17;101747.31;;;15.80;100.00
73240;BME280;61452;40.054;4.110;2024-02-16T08:58:19;101750.78;;;15.80;100.00
73240;BME280;61452;40.054;4.110;2024-02-16T09:03:21;101754.19;;;15.82;100.00
73240;BME280;61452;40.054;4.110;2024-02-16T09:08:23;101749.09;;;15.79;100.00
73240;BME280;61452;40.054;4.110;2024-02-16T09:13:26;101763.25;;;15.78;100.00
73240;BME280;61452;40.054;4.110;2024-02-16T09:18:34;101751.75;;;15.79;100.00
73240;BME280;61452;40.054;4.110;2024-02-16T09:23:39;101743.88;;;15.77;100.00
73240;BME280;61452;40.054;4.110;2024-02-16T09:28:41;101744.56;;;15.81;100.00
73240;BME280;61452;40.054;4.110;2024-02-16T09:33:44;101739.19;;;15.83;100.00
73240;BME280;61452;40.054;4.110;2024-02-16T09:38:46;101741.81;;;15.83;100.00
73240;BME280;61452;40.054;4.110;2024-02-16T09:43:48;101746.34;;;15.81;100.00
73240;BME280;61452;40.054;4.110;2024-02-16T09:48:51;101729.53;;;15.82;100.00
73240;BME280;61452;40.054;4.110;2024-02-16T09:53:55;101735.00;;;15.78;100.00
73240;BME280;61452;40.054;4.110;2024-02-16T09:59:00;101742.84;;;15.80;100.00
73240;BME280;61452;40.054;4.110;2024-02-16T10:04:07;101755.06;;;15.83;100.00
73240;BME280;61452;40.054;4.110;2024-02-16T10:09:09;101760.34;;;15.83;100.00
73240;BME280;61452;40.054;4.110;2024-02-16T10:14:13;101762.22;;;15.81;100.00
73240;BME280;61452;40.054;4.110;2024-02-16T10:19:17;101763.06;;;15.81;100.00
73240;BME280;61452;40.054;4.110;2024-02-16T10:24:22;101776.28;;;15.81;100.00
73240;BME280;61452;40.054;4.110;2024-02-16T10:29:27;101795.53;;;15.85;100.00
73240;BME280;61452;40.054;4.110;2024-02-16T10:34:29;101794.91;;;15.80;100.00
73240;BME280;61452;40.054;4.110;2024-02-16T10:39:32;101793.03;;;15.82;100.00
73240;BME280;61452;40.054;4.110;2024-02-16T10:44:34;101809.81;;;15.81;100.00
73240;BME280;61452;40.054;4.110;2024-02-16T10:49:37;101810.63;;;15.83;100.00
73240;BME280;61452;40.054;4.110;2024-02-16T10:54:40;101810.69;;;15.81;100.00
73240;BME280;61452;40.054;4.110;2024-02-16T10:59:44;101810.63;;;15.83;100.00
73240;BME280;61452;40.054;4.110;2024-02-16T11:04:48;101816.69;;;15.85;100.00
73240;BME280;61452;40.054;4.110;2024-02-16T11:09:51;101820.19;;;15.85;100.00
73240;BME280;61452;40.054;4.110;2024-02-16T11:14:56;101820.25;;;15.84;100.00
73240;BME280;61452;40.054;4.110;2024-02-16T11:19:59;101816.75;;;15.83;100.00
73240;BME280;61452;40.054;4.110;2024-02-16T11:25:04;101822.97;;;15.82;100.00
73240;BME280;61452;40.054;4.110;2024-02-16T11:30:10;101831.78;;;15.83;100.00
73240;BME280;61452;40.054;4.110;2024-02-16T11:35:12;101829.13;;;15.83;100.00
73240;BME280;61452;40.054;4.110;2024-02-16T11:40:14;101827.25;;;15.85;100.00
73240;BME280;61452;40.054;4.110;2024-02-16T11:45:23;101813.25;;;15.83;100.00
73240;BME280;61452;40.054;4.110;2024-02-16T11:50:26;101814.19;;;15.82;100.00
73240;BME280;61452;40.054;4.110;2024-02-16T11:55:28;101814.03;;;15.85;100.00
73240;BME280;61452;40.054;4.110;2024-02-16T12:00:30;101799.88;;;15.86;100.00
73240;BME280;61452;40.054;4.110;2024-02-16T12:05:32;101805.91;;;15.88;100.00
73240;BME280;61452;40.054;4.110;2024-02-16T12:10:36;101792.75;;;15.86;100.00
73240;BME280;61452;40.054;4.110;2024-02-16T12:15:38;101792.88;;;15.85;100.00
73240;BME280;61452;40.054;4.110;2024-02-16T12:20:40;101786.53;;;15.87;100.00
73240;BME280;61452;40.054;4.110;2024-02-16T12:25:43;101790.13;;;15.86;100.00
73240;BME280;61452;40.054;4.110;2024-02-16T12:30:48;101781.25;;;15.87;100.00
73240;BME280;61452;40.054;4.110;2024-02-16T12:35:50;101785.69;;;15.87;100.00
73240;BME280;61452;40.054;4.110;2024-02-16T12:40:53;101791.94;;;15.86;100.00
73240;BME280;61452;40.054;4.110;2024-02-16T12:45:55;101790.31;;;15.83;100.00
73240;BME280;61452;40.054;4.110;2024-02-16T12:50:58;101791.84;;;15.87;100.00
73240;BME280;61452;40.054;4.110;2024-02-16T12:56:00;101787.41;;;15.88;100.00
73240;BME280;61452;40.054;4.110;2024-02-16T13:01:03;101789.13;;;15.89;100.00
73240;BME280;61452;40.054;4.110;2024-02-16T13:06:20;101797.06;;;15.89;100.00
73240;BME280;61452;40.054;4.110;2024-02-16T13:11:28;101801.47;;;15.88;100.00
73240;BME280;61452;40.054;4.110;2024-02-16T13:16:31;101795.34;;;15.88;100.00
73240;BME280;61452;40.054;4.110;2024-02-16T13:21:33;101797.13;;;15.87;100.00
73240;BME280;61452;40.054;4.110;2024-02-16T13:26:35;101799.78;;;15.87;100.00
73240;BME280;61452;40.054;4.110;2024-02-16T13:31:37;101801.47;;;15.88;100.00
73240;BME280;61452;40.054;4.110;2024-02-16T13:36:41;101798.75;;;15.90;100.00
73240;BME280;61452;40.054;4.110;2024-02-16T13:41:43;101804.06;;;15.90;100.00
73240;BME280;61452;40.054;4.110;2024-02-16T13:46:48;101806.84;;;15.87;100.00
73240;BME280;61452;40.054;4.110;2024-02-16T13:51:50;101804.13;;;15.88;100.00
73240;BME280;61452;40.054;4.110;2024-02-16T13:56:52;101810.13;;;15.92;100.00
73240;BME280;61452;40.054;4.110;2024-02-16T14:01:54;101802.19;;;15.92;100.00
73240;BME280;61452;40.054;4.110;2024-02-16T14:06:57;101808.34;;;15.92;100.00
73240;BME280;61452;40.054;4.110;2024-02-16T14:11:59;101811.13;;;15.89;100.00
73240;BME280;61452;40.054;4.110;2024-02-16T14:17:02;101812.91;;;15.89;100.00
73240;BME280;61452;40.054;4.110;2024-02-16T14:22:04;101820.00;;;15.88;100.00
73240;BME280;61452;40.054;4.110;2024-02-16T14:27:08;101809.34;;;15.90;100.00
73240;BME280;61452;40.054;4.110;2024-02-16T14:32:11;101813.84;;;15.88;100.00
73240;BME280;61452;40.054;4.110;2024-02-16T14:37:13;101817.34;;;15.88;100.00
73240;BME280;61452;40.054;4.110;2024-02-16T14:42:15;101825.03;;;15.93;100.00
73240;BME280;61452;40.054;4.110;2024-02-16T14:47:18;101819.00;;;15.91;100.00
73240;BME280;61452;40.054;4.110;2024-02-16T14:52:20;101831.28;;;15.92;100.00
73240;BME280;61452;40.054;4.110;2024-02-16T14:57:22;101832.31;;;15.89;100.00
73240;BME280;61452;40.054;4.110;2024-02-16T15:02:26;101831.44;;;15.89;100.00
73240;BME280;61452;40.054;4.110;2024-02-16T15:07:29;101816.50;;;15.88;100.00
73240;BME280;61452;40.054;4.110;2024-02-16T15:12:31;101835.63;;;15.93;100.00
73240;BME280;61452;40.054;4.110;2024-02-16T15:17:33;101840.16;;;15.91;100.00
73240;BME280;61452;40.054;4.110;2024-02-16T15:22:36;101848.97;;;15.91;100.00
73240;BME280;61452;40.054;4.110;2024-02-16T15:27:49;101858.69;;;15.91;100.00
73240;BME280;61452;40.054;4.110;2024-02-16T15:32:54;101852.53;;;15.90;100.00
73240;BME280;61452;40.054;4.110;2024-02-16T15:37:56;101857.75;;;15.92;100.00
73240;BME280;61452;40.054;4.110;2024-02-16T15:43:03;101866.44;;;15.94;100.00
73240;BME280;61452;40.054;4.110;2024-02-16T15:48:08;101871.06;;;15.90;100.00
73240;BME280;61452;40.054;4.110;2024-02-16T15:53:10;101869.28;;;15.91;100.00
73240;BME280;61452;40.054;4.110;2024-02-16T15:58:13;101874.63;;;15.89;100.00
73240;BME280;61452;40.054;4.110;2024-02-16T16:03:15;101870.19;;;15.90;100.00
73240;BME280;61452;40.054;4.110;2024-02-16T16:08:18;101875.41;;;15.91;100.00
73240;BME280;61452;40.054;4.110;2024-02-16T16:13:23;101883.34;;;15.91;100.00
73240;BME280;61452;40.054;4.110;2024-02-16T16:18:25;101890.50;;;15.89;100.00
73240;BME280;61452;40.054;4.110;2024-02-16T16:23:27;101901.94;;;15.90;100.00
73240;BME280;61452;40.054;4.110;2024-02-16T16:28:33;101890.44;;;15.91;100.00
73240;BME280;61452;40.054;4.110;2024-02-16T16:33:35;101901.94;;;15.90;100.00
73240;BME280;61452;40.054;4.110;2024-02-16T16:38:37;101916.97;;;15.89;100.00
73240;BME280;61452;40.054;4.110;2024-02-16T16:43:39;101920.28;;;15.93;100.00
73240;BME280;61452;40.054;4.110;2024-02-16T16:48:41;101925.59;;;15.93;100.00
73240;BME280;61452;40.054;4.110;2024-02-16T16:53:44;101931.84;;;15.92;100.00
73240;BME280;61452;40.054;4.110;2024-02-16T16:58:46;101931.06;;;15.90;100.00
73240;BME280;61452;40.054;4.110;2024-02-16T17:03:48;101937.13;;;15.92;100.00
73240;BME280;61452;40.054;4.110;2024-02-16T17:08:50;101943.34;;;15.91;100.00
73240;BME280;61452;40.054;4.110;2024-02-16T17:13:53;101953.00;;;15.92;100.00
73240;BME280;61452;40.054;4.110;2024-02-16T17:18:55;101948.66;;;15.91;100.00
73240;BME280;61452;40.054;4.110;2024-02-16T17:23:57;101968.78;;;15.93;100.00
73240;BME280;61452;40.054;4.110;2024-02-16T17:29:00;101969.75;;;15.92;100.00
73240;BME280;61452;40.054;4.110;2024-02-16T17:34:01;101989.19;;;15.91;100.00
73240;BME280;61452;40.054;4.110;2024-02-16T17:39:10;101975.84;;;15.93;100.00
73240;BME280;61452;40.054;4.110;2024-02-16T17:44:12;101996.19;;;15.92;100.00
73240;BME280;61452;40.054;4.110;2024-02-16T17:49:14;102004.22;;;15.91;100.00
73240;BME280;61452;40.054;4.110;2024-02-16T17:54:16;102013.88;;;15.92;100.00
73240;BME280;61452;40.054;4.110;2024-02-16T17:59:18;102017.28;;;15.94;100.00
73240;BME280;61452;40.054;4.110;2024-02-16T18:04:20;102008.66;;;15.90;100.00
73240;BME280;61452;40.054;4.110;2024-02-16T18:09:22;102012.91;;;15.93;100.00
73240;BME280;61452;40.054;4.110;2024-02-16T18:14:25;102017.38;;;15.92;100.00
73240;BME280;61452;40.054;4.110;2024-02-16T18:19:31;102035.09;;;15.90;100.00
73240;BME280;61452;40.054;4.110;2024-02-16T18:24:36;102031.53;;;15.91;100.00
73240;BME280;61452;40.054;4.110;2024-02-16T18:29:39;102044.59;;;15.94;100.00
73240;BME280;61452;40.054;4.110;2024-02-16T18:34:41;102046.38;;;15.94;100.00
73240;BME280;61452;40.054;4.110;2024-02-16T18:39:45;102049.03;;;15.94;100.00
73240;BME280;61452;40.054;4.110;2024-02-16T18:44:47;102062.34;;;15.92;100.00
73240;BME280;61452;40.054;4.110;2024-02-16T18:49:50;102069.34;;;15.93;100.00
73240;BME280;61452;40.054;4.110;2024-02-16T18:54:54;102066.84;;;15.90;100.00
73240;BME280;61452;40.054;4.110;2024-02-16T18:59:56;102068.56;;;15.91;100.00
73240;BME280;61452;40.054;4.110;2024-02-16T19:04:58;102077.38;;;15.92;100.00
73240;BME280;61452;40.054;4.110;2024-02-16T19:10:00;102087.00;;;15.93;100.00
73240;BME280;61452;40.054;4.110;2024-02-16T19:15:03;102088.03;;;15.90;100.00
73240;BME280;61452;40.054;4.110;2024-02-16T19:20:09;102096.75;;;15.92;100.00
73240;BME280;61452;40.054;4.110;2024-02-16T19:25:12;102095.91;;;15.92;100.00
73240;BME280;61452;40.054;4.110;2024-02-16T19:30:14;102104.69;;;15.92;100.00
73240;BME280;61452;40.054;4.110;2024-02-16T19:35:16;102115.34;;;15.91;100.00
73240;BME280;61452;40.054;4.110;2024-02-16T19:40:23;102119.72;;;15.92;100.00
73240;BME280;61452;40.054;4.110;2024-02-16T19:45:26;102128.41;;;15.94;100.00
73240;BME280;61452;40.054;4.110;2024-02-16T19:50:30;102134.63;;;15.93;100.00
73240;BME280;61452;40.054;4.110;2024-02-16T19:55:32;102127.66;;;15.92;100.00
73240;BME280;61452;40.054;4.110;2024-02-16T20:00:34;102136.44;;;15.92;100.00
73240;BME280;61452;40.054;4.110;2024-02-16T20:05:36;102143.44;;;15.93;100.00
73240;BME280;61452;40.054;4.110;2024-02-16T20:10:39;102146.06;;;15.93;100.00
73240;BME280;61452;40.054;4.110;2024-02-16T20:15:41;102146.16;;;15.92;100.00
73240;BME280;61452;40.054;4.110;2024-02-16T20:20:43;102139.09;;;15.92;100.00
73240;BME280;61452;40.054;4.110;2024-02-16T20:25:46;102149.69;;;15.92;100.00
73240;BME280;61452;40.054;4.110;2024-02-16T20:30:48;102154.09;;;15.92;100.00
73240;BME280;61452;40.054;4.110;2024-02-16T20:35:50;102162.03;;;15.92;100.00
73240;BME280;61452;40.054;4.110;2024-02-16T20:40:52;102164.75;;;15.90;100.00
73240;BME280;61452;40.054;4.110;2024-02-16T20:45:54;102183.28;;;15.90;100.00
73240;BME280;61452;40.054;4.110;2024-02-16T20:50:56;102185.88;;;15.92;100.00
73240;BME280;61452;40.054;4.110;2024-02-16T20:55:59;102194.56;;;15.94;100.00
73240;BME280;61452;40.054;4.110;2024-02-16T21:01:01;102203.34;;;15.94;100.00
73240;BME280;61452;40.054;4.110;2024-02-16T21:06:03;102207.03;;;15.92;100.00
73240;BME280;61452;40.054;4.110;2024-02-16T21:11:05;102205.25;;;15.92;100.00
73240;BME280;61452;40.054;4.110;2024-02-16T21:16:07;102206.94;;;15.93;100.00
73240;BME280;61452;40.054;4.110;2024-02-16T21:21:10;102211.22;;;15.96;100.00
73240;BME280;61452;40.054;4.110;2024-02-16T21:26:12;102208.66;;;15.94;100.00
73240;BME280;61452;40.054;4.110;2024-02-16T21:31:14;102216.59;;;15.94;100.00
73240;BME280;61452;40.054;4.110;2024-02-16T21:36:16;102228.91;;;15.95;100.00
73240;BME280;61452;40.054;4.110;2024-02-16T21:41:24;102228.97;;;15.94;100.00
73240;BME280;61452;40.054;4.110;2024-02-16T21:46:28;102233.41;;;15.93;100.00
73240;BME280;61452;40.054;4.110;2024-02-16T21:51:31;102234.25;;;15.94;100.00
73240;BME280;61452;40.054;4.110;2024-02-16T21:56:34;102239.66;;;15.92;100.00
73240;BME280;61452;40.054;4.110;2024-02-16T22:01:37;102243.22;;;15.91;100.00
73240;BME280;61452;40.054;4.110;2024-02-16T22:06:39;102257.22;;;15.93;100.00
73240;BME280;61452;40.054;4.110;2024-02-16T22:11:41;102259.78;;;15.95;100.00
73240;BME280;61452;40.054;4.110;2024-02-16T22:16:43;102262.44;;;15.95;100.00
73240;BME280;61452;40.054;4.110;2024-02-16T22:21:45;102267.91;;;15.92;100.00
73240;BME280;61452;40.054;4.110;2024-02-16T22:26:48;102270.44;;;15.93;100.00
73240;BME280;61452;40.054;4.110;2024-02-16T22:31:50;102272.22;;;15.93;100.00
73240;BME280;61452;40.054;4.110;2024-02-16T22:37:06;102279.34;;;15.92;100.00
73240;BME280;61452;40.054;4.110;2024-02-16T22:42:08;102276.59;;;15.94;100.00
73240;BME280;61452;40.054;4.110;2024-02-16T22:47:10;102278.31;;;15.95;100.00
73240;BME280;61452;40.054;4.110;2024-02-16T22:52:12;102266.88;;;15.94;100.00
73240;BME280;61452;40.054;4.110;2024-02-16T22:57:14;102264.22;;;15.94;100.00
73240;BME280;61452;40.054;4.110;2024-02-16T23:02:16;102266.94;;;15.93;100.00
73240;BME280;61452;40.054;4.110;2024-02-16T23:07:18;102280.25;;;15.91;100.00
73240;BME280;61452;40.054;4.110;2024-02-16T23:12:24;102274.19;;;15.89;100.00
73240;BME280;61452;40.054;4.110;2024-02-16T23:17:28;102292.63;;;15.91;100.00
73240;BME280;61452;40.054;4.110;2024-02-16T23:22:31;102293.34;;;15.94;100.00
73240;BME280;61452;40.054;4.110;2024-02-16T23:27:33;102295.97;;;15.94;100.00
73240;BME280;61452;40.054;4.110;2024-02-16T23:32:36;102300.41;;;15.94;100.00
73240;BME280;61452;40.054;4.110;2024-02-16T23:37:38;102298.69;;;15.93;100.00
73240;BME280;61452;40.054;4.110;2024-02-16T23:42:40;102301.44;;;15.91;100.00
73240;BME280;61452;40.054;4.110;2024-02-16T23:47:47;102313.66;;;15.94;100.00
73240;BME280;61452;40.054;4.110;2024-02-16T23:52:50;102314.56;;;15.93;100.00
73240;BME280;61452;40.054;4.110;2024-02-16T23:57:52;102318.00;;;15.95;100.00
